Time;durP1;ratioP1;P1;durP2;ratioP2;P2;SDS_P1;SDS_P2;PMS_P1;PMS_P2;Temp;Humidity;BMP_temperature;BMP_pressure;BME280_temperature;BME280_humidity;BME280_pressure;Samples;Min_cycle;Max_cycle;Signal;HPM_P1;HPM_P2
2022/07/22 00:01:20;;;;;;;10.70;5.20;;;;;;;22.19;60.02;100426.70;105737;1276;100384;-81
2022/07/22 00:03:49;;;;;;;8.90;4.70;;;;;;;22.17;60.14;100426.99;105788;1276;140366;-81
2022/07/22 00:06:17;;;;;;;9.40;5.20;;;;;;;22.13;60.35;100427.14;105773;1276;93729;-81
2022/07/22 00:08:45;;;;;;;8.90;5.30;;;;;;;22.10;60.34;100427.92;105943;1276;94722;-82
2022/07/22 00:11:13;;;;;;;10.80;5.40;;;;;;;22.08;60.30;100431.67;105810;1276;138963;-81
2022/07/22 00:13:40;;;;;;;8.60;4.60;;;;;;;22.10;60.21;100429.19;105796;1274;99816;-81
2022/07/22 00:16:08;;;;;;;8.50;4.50;;;;;;;22.12;60.08;100425.20;105984;1276;138996;-83
2022/07/22 00:18:36;;;;;;;10.00;4.80;;;;;;;22.10;59.88;100426.80;106458;1275;94213;-81
2022/07/22 00:21:05;;;;;;;8.50;4.90;;;;;;;22.12;59.66;100429.42;106605;1276;94724;-82
2022/07/22 00:23:38;;;;;;;9.40;5.00;;;;;;;22.16;59.67;100430.02;106964;1276;108849;-82
2022/07/22 00:26:06;;;;;;;9.70;5.00;;;;;;;22.14;59.84;100432.52;107205;1276;98916;-80
2022/07/22 00:28:34;;;;;;;9.00;5.00;;;;;;;22.04;59.72;100431.44;106478;1276;137782;-80
2022/07/22 00:31:02;;;;;;;7.90;4.60;;;;;;;21.97;59.74;100431.40;105616;1276;95203;-80
2022/07/22 00:33:31;;;;;;;9.70;5.40;;;;;;;21.97;59.67;100429.45;105418;1276;138253;-83
2022/07/22 00:36:00;;;;;;;9.50;4.90;;;;;;;22.04;59.62;100428.86;105334;1276;108020;-81
2022/07/22 00:38:28;;;;;;;8.20;4.90;;;;;;;22.12;59.11;100424.32;105331;1277;99136;-80
2022/07/22 00:40:56;;;;;;;9.00;4.90;;;;;;;22.10;59.16;100422.28;105393;1277;138350;-80
2022/07/22 00:43:24;;;;;;;8.60;5.20;;;;;;;22.03;59.21;100420.98;105449;1276;94331;-81
2022/07/22 00:45:52;;;;;;;9.20;4.80;;;;;;;22.00;59.37;100424.31;105014;1277;139049;-81
2022/07/22 00:48:21;;;;;;;8.20;4.40;;;;;;;22.05;59.08;100422.67;105185;1276;109418;-81
2022/07/22 00:50:48;;;;;;;8.60;4.80;;;;;;;22.09;59.08;100418.21;105236;1276;99979;-81
2022/07/22 00:53:16;;;;;;;9.20;4.50;;;;;;;22.10;59.04;100415.41;105323;1276;139560;-81
2022/07/22 00:55:45;;;;;;;9.00;4.80;;;;;;;22.02;59.24;100421.61;105146;1278;94433;-82
2022/07/22 00:58:13;;;;;;;8.00;4.60;;;;;;;21.87;59.60;100415.48;105057;1276;140026;-81
2022/07/22 01:00:41;;;;;;;8.80;4.80;;;;;;;21.79;59.86;100416.83;105516;1276;107858;-80
2022/07/22 01:03:09;;;;;;;8.50;4.20;;;;;;;21.75;60.01;100416.21;105418;1276;140619;-81
2022/07/22 01:05:37;;;;;;;8.80;4.60;;;;;;;21.76;60.29;100409.09;105441;1277;108307;-81
2022/07/22 01:08:06;;;;;;;8.80;4.50;;;;;;;21.80;60.04;100409.30;105586;1277;94851;-80
2022/07/22 01:10:34;;;;;;;9.20;4.50;;;;;;;21.86;59.76;100407.61;105432;1276;140254;-80
2022/07/22 01:13:02;;;;;;;8.00;4.40;;;;;;;21.88;60.05;100403.67;105569;1276;108906;-80
2022/07/22 01:15:30;;;;;;;8.10;4.20;;;;;;;21.89;59.91;100402.16;105526;1276;140179;-80
2022/07/22 01:17:58;;;;;;;8.40;4.30;;;;;;;21.90;59.91;100405.20;105426;1276;109447;-81
2022/07/22 01:20:26;;;;;;;8.40;4.50;;;;;;;21.92;59.77;100400.09;105230;1278;94762;-80
2022/07/22 01:22:54;;;;;;;8.10;4.30;;;;;;;21.95;59.87;100403.53;105258;1277;138436;-81
2022/07/22 01:25:22;;;;;;;7.70;4.60;;;;;;;21.95;59.75;100402.65;105413;1277;108404;-81
2022/07/22 01:27:50;;;;;;;9.50;4.70;;;;;;;21.92;59.79;100399.76;105368;1277;140590;-81
2022/07/22 01:30:18;;;;;;;7.90;4.10;;;;;;;21.89;59.67;100397.63;105723;1277;109463;-81
2022/07/22 01:32:46;;;;;;;7.40;4.10;;;;;;;21.81;60.12;100393.89;105516;1277;95400;-81
2022/07/22 01:35:13;;;;;;;8.10;4.30;;;;;;;21.76;60.22;100393.02;105563;1277;138431;-81
2022/07/22 01:37:41;;;;;;;8.00;4.40;;;;;;;21.74;60.12;100390.95;105494;1277;109479;-80
2022/07/22 01:40:10;;;;;;;7.90;4.50;;;;;;;21.75;60.57;100390.55;105355;1277;140246;-80
2022/07/22 01:42:38;;;;;;;7.90;4.70;;;;;;;21.76;60.50;100388.15;105413;1277;108331;-81
2022/07/22 01:45:07;;;;;;;7.70;4.40;;;;;;;21.74;60.50;100394.93;105314;1277;138802;-81
2022/07/22 01:47:35;;;;;;;8.30;4.50;;;;;;;21.75;60.44;100397.92;105701;1277;94251;-81
2022/07/22 01:50:09;;;;;;;9.40;4.40;;;;;;;21.76;60.40;100401.67;105749;1276;108970;-81
2022/07/22 01:52:39;;;;;;;8.10;4.50;;;;;;;21.76;60.23;100407.60;105678;1277;138905;-81
2022/07/22 01:55:08;;;;;;;8.80;5.00;;;;;;;21.78;60.03;100404.57;105505;1276;108818;-81
2022/07/22 01:57:36;;;;;;;7.70;4.30;;;;;;;21.76;60.11;100409.45;105557;1276;138646;-82
2022/07/22 02:00:13;;;;;;;8.20;4.80;;;;;;;21.70;60.87;100414.20;105495;1276;94198;-82
2022/07/22 02:02:45;;;;;;;9.30;4.70;;;;;;;21.70;60.84;100417.42;105631;1276;109116;-82
2022/07/22 02:05:13;;;;;;;8.50;4.70;;;;;;;21.70;61.19;100417.30;105477;1277;139778;-82
2022/07/22 02:07:41;;;;;;;9.60;5.00;;;;;;;21.60;61.50;100416.20;105621;1276;109264;-82
2022/07/22 02:10:09;;;;;;;7.60;4.40;;;;;;;21.43;61.88;100407.83;105359;1276;139922;-81
2022/07/22 02:12:39;;;;;;;8.90;4.30;;;;;;;21.31;62.09;100406.52;105494;1276;94334;-81
2022/07/22 02:15:08;;;;;;;7.60;4.70;;;;;;;21.28;62.47;100406.48;105847;1276;141681;-82
2022/07/22 02:17:36;;;;;;;8.40;4.60;;;;;;;21.28;62.00;100411.00;105626;1276;99227;-81
2022/07/22 02:20:05;;;;;;;10.20;5.40;;;;;;;21.31;61.80;100438.09;105500;1279;108238;-81
2022/07/22 02:22:32;;;;;;;9.70;5.70;;;;;;;21.17;62.06;100427.69;105252;1278;138909;-82
2022/07/22 02:25:02;;;;;;;9.50;5.00;;;;;;;21.03;62.40;100441.06;105497;1276;94700;-80
2022/07/22 02:27:30;;;;;;;9.90;5.60;;;;;;;20.94;62.67;100431.98;105290;1277;139440;-82
2022/07/22 02:29:58;;;;;;;9.30;5.10;;;;;;;20.99;62.15;100440.83;105474;1277;99851;-81
2022/07/22 02:32:26;;;;;;;10.90;5.10;;;;;;;20.98;62.62;100431.86;105358;1280;109515;-82
2022/07/22 02:34:54;;;;;;;9.90;5.50;;;;;;;20.81;62.73;100421.36;105201;1280;140761;-81
2022/07/22 02:37:24;;;;;;;9.40;5.50;;;;;;;20.80;62.90;100426.12;105441;1276;94217;-81
2022/07/22 02:39:52;;;;;;;8.50;5.10;;;;;;;20.90;62.56;100436.23;105441;1277;140634;-82
2022/07/22 02:42:20;;;;;;;9.10;4.70;;;;;;;20.93;62.72;100431.54;105628;1277;98858;-81
2022/07/22 02:44:49;;;;;;;9.90;4.90;;;;;;;20.87;62.78;100429.42;105520;1276;107715;-82
2022/07/22 02:47:17;;;;;;;9.90;5.40;;;;;;;20.94;62.51;100436.90;105454;1277;139656;-81
2022/07/22 02:49:45;;;;;;;10.50;5.40;;;;;;;20.93;62.70;100429.16;105670;1278;94389;-81
2022/07/22 02:52:14;;;;;;;9.20;5.00;;;;;;;20.71;63.39;100417.27;105314;1277;139452;-82
2022/07/22 02:54:42;;;;;;;9.10;4.80;;;;;;;20.70;63.17;100421.16;105604;1277;99911;-82
2022/07/22 02:57:10;;;;;;;10.00;5.00;;;;;;;20.79;63.29;100429.24;105302;1276;138597;-81
2022/07/22 02:59:38;;;;;;;8.70;5.00;;;;;;;20.83;63.39;100426.63;105437;1277;94582;-81
2022/07/22 03:02:06;;;;;;;10.30;5.40;;;;;;;20.78;63.47;100423.90;105619;1277;94157;-81
2022/07/22 03:04:34;;;;;;;8.90;5.00;;;;;;;20.71;63.49;100427.77;105318;1278;140801;-80
2022/07/22 03:07:02;;;;;;;8.10;5.00;;;;;;;20.68;64.26;100423.11;105461;1278;99226;-82
2022/07/22 03:09:32;;;;;;;8.20;5.20;;;;;;;20.50;64.36;100417.60;105537;1276;139722;-80
2022/07/22 03:12:00;;;;;;;11.90;5.60;;;;;;;20.45;64.79;100419.43;105616;1277;94972;-81
2022/07/22 03:14:28;;;;;;;9.90;5.20;;;;;;;20.47;65.22;100421.45;105561;1277;94633;-81
2022/07/22 03:16:56;;;;;;;10.60;5.10;;;;;;;20.45;65.15;100419.79;105327;1279;138265;-83
2022/07/22 03:19:24;;;;;;;9.80;5.10;;;;;;;20.50;65.24;100422.11;105361;1277;99799;-82
2022/07/22 03:21:53;;;;;;;10.20;5.30;;;;;;;20.49;65.14;100420.02;105489;1277;138848;-82
2022/07/22 03:24:22;;;;;;;8.80;4.60;;;;;;;20.56;64.96;100422.45;105494;1278;94252;-80
2022/07/22 03:26:50;;;;;;;8.80;4.80;;;;;;;20.54;65.17;100415.33;105469;1280;94696;-81
2022/07/22 03:29:18;;;;;;;9.50;5.10;;;;;;;20.54;65.36;100414.27;105256;1279;139659;-81
2022/07/22 03:31:45;;;;;;;10.10;5.00;;;;;;;20.47;65.41;100408.82;105380;1279;99718;-81
2022/07/22 03:34:15;;;;;;;10.90;5.40;;;;;;;20.39;65.81;100408.83;105426;1278;138547;-81
2022/07/22 03:37:06;;;;;;;9.80;5.10;;;;;;;20.39;65.50;100409.89;105576;1276;94503;-84
2022/07/22 03:39:34;;;;;;;9.70;4.70;;;;;;;20.53;65.85;100417.23;105258;1278;139084;-81
2022/07/22 03:42:02;;;;;;;8.40;5.00;;;;;;;20.66;65.62;100419.63;105534;1277;109594;-82
2022/07/22 03:44:32;;;;;;;9.30;4.70;;;;;;;20.77;65.28;100416.41;105442;1280;98531;-82
2022/07/22 03:47:03;;;;;;;8.90;4.80;;;;;;;20.83;65.36;100418.69;105454;1278;138074;-81
2022/07/22 03:49:31;;;;;;;9.50;4.80;;;;;;;20.88;65.23;100421.74;105598;1277;94559;-81
2022/07/22 03:52:00;;;;;;;7.90;4.70;;;;;;;20.91;65.59;100425.20;105468;1277;139507;-81
2022/07/22 03:54:28;;;;;;;9.30;5.00;;;;;;;20.91;65.62;100422.48;105609;1281;109801;-82
2022/07/22 03:56:56;;;;;;;8.60;4.70;;;;;;;20.94;65.53;100427.11;105377;1278;100677;-81
2022/07/22 03:59:24;;;;;;;9.80;4.70;;;;;;;21.01;65.38;100432.25;105422;1277;140512;-82
2022/07/22 04:01:53;;;;;;;7.90;4.40;;;;;;;21.05;65.23;100434.10;105460;1279;94281;-82
2022/07/22 04:04:21;;;;;;;9.90;5.00;;;;;;;21.07;66.00;100433.63;105223;1278;138632;-81
2022/07/22 04:06:51;;;;;;;9.30;5.30;;;;;;;21.06;66.06;100430.61;105282;1281;108883;-80
2022/07/22 04:09:22;;;;;;;8.80;4.80;;;;;;;21.12;66.00;100434.73;105425;1277;138864;-80
2022/07/22 04:11:50;;;;;;;9.40;5.30;;;;;;;21.20;65.94;100435.08;105565;1277;109266;-80
2022/07/22 04:14:19;;;;;;;9.00;4.80;;;;;;;21.27;65.90;100436.79;105631;1278;94130;-82
2022/07/22 04:16:47;;;;;;;10.70;5.50;;;;;;;21.31;65.94;100435.57;105451;1278;138162;-81
2022/07/22 04:19:15;;;;;;;8.40;4.80;;;;;;;21.45;65.15;100432.42;105480;1280;108878;-83
2022/07/22 04:21:52;;;;;;;9.30;4.90;;;;;;;21.56;64.77;100433.66;105686;1277;138571;-83
2022/07/22 04:24:22;;;;;;;8.60;5.10;;;;;;;21.62;65.50;100430.88;105636;1278;106481;-80
2022/07/22 04:26:50;;;;;;;8.60;4.60;;;;;;;21.66;65.73;100428.78;105697;1278;95701;-81
2022/07/22 04:29:18;;;;;;;9.70;5.20;;;;;;;21.70;65.90;100429.36;105602;1277;138769;-81
2022/07/22 04:31:45;;;;;;;11.00;5.60;;;;;;;21.81;65.16;100427.69;105567;1277;108823;-80
2022/07/22 04:34:16;;;;;;;8.90;5.10;;;;;;;21.87;65.52;100430.52;105620;1277;139065;-81
2022/07/22 04:36:44;;;;;;;10.40;5.30;;;;;;;21.87;65.83;100425.08;105601;1277;108703;-82
2022/07/22 04:39:12;;;;;;;9.60;5.20;;;;;;;21.91;65.42;100423.89;105659;1277;138609;-83
2022/07/22 04:41:45;;;;;;;9.20;4.80;;;;;;;22.01;64.90;100421.17;105727;1277;95119;-82
2022/07/22 04:44:15;;;;;;;11.00;5.50;;;;;;;22.13;63.89;100420.43;105669;1277;109218;-82
2022/07/22 04:46:43;;;;;;;9.50;4.80;;;;;;;22.24;63.02;100421.08;105609;1277;138657;-83
2022/07/22 04:49:11;;;;;;;8.90;4.50;;;;;;;22.32;62.53;100416.36;106106;1277;106068;-83
2022/07/22 04:51:40;;;;;;;10.70;4.50;;;;;;;22.38;62.21;100416.28;106218;1277;138676;-83
2022/07/22 04:54:11;;;;;;;9.70;4.70;;;;;;;22.46;62.00;100416.55;106545;1277;95068;-81
2022/07/22 04:56:42;;;;;;;8.90;4.80;;;;;;;22.53;61.75;100417.67;106883;1277;107941;-82
2022/07/22 04:59:11;;;;;;;9.00;4.90;;;;;;;22.60;62.15;100413.17;106627;1278;138869;-80
2022/07/22 05:01:40;;;;;;;10.40;5.00;;;;;;;22.66;60.86;100413.99;105548;1277;106765;-80
2022/07/22 05:04:08;;;;;;;9.50;5.00;;;;;;;22.73;60.63;100412.91;105226;1278;139555;-80
2022/07/22 05:06:38;;;;;;;10.40;4.90;;;;;;;22.77;59.37;100410.41;105479;1277;95242;-80
2022/07/22 05:09:06;;;;;;;10.60;4.90;;;;;;;22.77;58.07;100406.84;105128;1278;140502;-82
2022/07/22 05:11:35;;;;;;;10.60;4.90;;;;;;;22.85;58.09;100408.86;105266;1278;99543;-81
2022/07/22 05:14:03;;;;;;;10.40;4.70;;;;;;;22.91;59.01;100403.55;105119;1278;109146;-80
2022/07/22 05:16:31;;;;;;;9.20;4.70;;;;;;;22.91;58.18;100403.52;105070;1278;140471;-81
2022/07/22 05:18:59;;;;;;;25.80;16.70;;;;;;;23.00;58.17;100412.39;105444;1278;95250;-81
2022/07/22 05:21:28;;;;;;;11.70;5.40;;;;;;;23.08;56.37;100406.70;105375;1278;141192;-80
2022/07/22 05:23:57;;;;;;;10.60;4.70;;;;;;;23.15;56.02;100404.58;105297;1278;100041;-81
2022/07/22 05:26:28;;;;;;;9.00;4.70;;;;;;;23.26;55.90;100407.17;105419;1277;109022;-80
2022/07/22 05:28:56;;;;;;;9.20;4.60;;;;;;;23.38;55.77;100410.36;105167;1281;140534;-81
2022/07/22 05:31:26;;;;;;;10.00;4.50;;;;;;;23.46;55.43;100408.67;105642;1277;95115;-80
2022/07/22 05:33:54;;;;;;;9.60;4.50;;;;;;;23.52;55.56;100408.16;105343;1278;140717;-80
2022/07/22 05:36:31;;;;;;;11.80;5.00;;;;;;;23.59;55.75;100410.73;105490;1279;100237;-81
2022/07/22 05:39:01;;;;;;;11.90;4.90;;;;;;;23.69;56.01;100412.45;105667;1277;106463;-80
2022/07/22 05:41:30;;;;;;;9.00;4.60;;;;;;;23.77;55.22;100412.86;105020;1281;139437;-80
2022/07/22 05:43:58;;;;;;;9.80;4.60;;;;;;;23.85;54.84;100414.70;105139;1278;95881;-80
2022/07/22 05:46:26;;;;;;;9.90;4.40;;;;;;;23.94;54.54;100417.48;105040;1277;139832;-80
2022/07/22 05:48:56;;;;;;;9.70;4.40;;;;;;;23.99;53.10;100414.91;105093;1278;98871;-79
2022/07/22 05:51:25;;;;;;;9.20;4.10;;;;;;;24.05;53.72;100405.86;104892;1280;138888;-82
2022/07/22 05:53:53;;;;;;;9.70;4.90;;;;;;;24.14;53.83;100410.24;105440;1277;95176;-80
2022/07/22 05:56:21;;;;;;;10.10;4.20;;;;;;;24.19;54.62;100408.86;105456;1278;95347;-81
2022/07/22 05:58:50;;;;;;;8.60;4.20;;;;;;;24.25;53.68;100406.23;105388;1277;138632;-81
2022/07/22 06:01:17;;;;;;;12.80;4.60;;;;;;;24.37;53.67;100403.23;105460;1278;100352;-81
2022/07/22 06:03:45;;;;;;;10.50;4.30;;;;;;;24.46;53.41;100406.84;105306;1278;139512;-81
2022/07/22 06:06:14;;;;;;;13.20;4.90;;;;;;;24.56;54.07;100403.29;105295;1278;95550;-81
2022/07/22 06:08:42;;;;;;;11.10;4.20;;;;;;;24.65;53.46;100403.09;105404;1277;95169;-81
2022/07/22 06:11:10;;;;;;;9.80;4.10;;;;;;;24.71;53.35;100404.23;105751;1278;140192;-81
2022/07/22 06:13:38;;;;;;;11.00;4.40;;;;;;;24.79;52.73;100404.40;105697;1276;99911;-80
2022/07/22 06:16:07;;;;;;;9.00;4.10;;;;;;;24.89;52.97;100406.08;105502;1277;138582;-80
2022/07/22 06:18:35;;;;;;;9.60;3.60;;;;;;;24.95;51.34;100408.13;105554;1278;95274;-82
2022/07/22 06:21:07;;;;;;;8.50;3.60;;;;;;;24.99;50.95;100408.70;105712;1276;95104;-81
2022/07/22 06:23:35;;;;;;;8.00;3.60;;;;;;;25.07;50.66;100409.05;105834;1277;110610;-82
2022/07/22 06:26:04;;;;;;;7.90;3.80;;;;;;;25.18;50.22;100412.45;105596;1276;98839;-82
2022/07/22 06:28:33;;;;;;;8.20;3.70;;;;;;;25.29;50.19;100411.57;105560;1277;138157;-82
2022/07/22 06:31:02;;;;;;;8.50;3.60;;;;;;;25.38;50.05;100414.18;105470;1278;95233;-82
2022/07/22 06:33:33;;;;;;;10.50;3.80;;;;;;;25.47;50.89;100415.27;105481;1277;139256;-81
2022/07/22 06:36:02;;;;;;;8.10;3.60;;;;;;;25.53;50.21;100418.71;105418;1277;110367;-82
2022/07/22 06:38:31;;;;;;;9.00;3.90;;;;;;;25.62;49.75;100419.75;105504;1277;98872;-80
2022/07/22 06:41:20;;;;;;;7.00;4.00;;;;;;;25.72;49.38;100423.00;105318;1277;138610;-82
2022/07/22 06:44:09;;;;;;;9.00;3.90;;;;;;;25.81;49.34;100427.52;105247;1278;95019;-81
2022/07/22 06:46:58;;;;;;;7.30;3.70;;;;;;;25.90;49.59;100430.70;105642;1277;138540;-82
2022/07/22 06:49:26;;;;;;;8.80;3.90;;;;;;;25.98;49.17;100426.54;105588;1276;109188;-81
2022/07/22 06:51:55;;;;;;;9.30;3.90;;;;;;;26.08;49.13;100430.91;105300;1278;140820;-81
2022/07/22 06:54:23;;;;;;;8.10;3.90;;;;;;;26.16;49.25;100433.02;105486;1278;108579;-81
2022/07/22 06:56:52;;;;;;;8.40;3.70;;;;;;;26.25;48.78;100427.14;105505;1277;95684;-82
2022/07/22 06:59:25;;;;;;;9.60;3.60;;;;;;;26.33;48.06;100426.93;105271;1277;138411;-80
2022/07/22 07:01:53;;;;;;;8.50;3.90;;;;;;;26.44;47.92;100424.94;105538;1276;108185;-81
2022/07/22 07:04:21;;;;;;;14.10;4.30;;;;;;;26.53;48.01;100422.63;105347;1278;138877;-83
2022/07/22 07:06:50;;;;;;;9.60;3.80;;;;;;;26.60;47.92;100418.86;105500;1277;110213;-81
2022/07/22 07:09:33;;;;;;;8.20;3.60;;;;;;;26.69;47.09;100417.83;105843;1277;140099;-82
2022/07/22 07:12:09;;;;;;;8.50;3.70;;;;;;;26.78;47.44;100411.86;105629;1277;95648;-82
2022/07/22 07:14:55;;;;;;;9.20;4.10;;;;;;;26.91;45.88;100411.99;105681;1277;140480;-81
2022/07/22 07:17:44;;;;;;;12.30;3.80;;;;;;;27.02;44.79;100415.28;105552;1277;98360;-81
2022/07/22 07:20:15;;;;;;;10.10;3.80;;;;;;;27.12;45.46;100413.23;105067;1277;140160;-82
2022/07/22 07:22:43;;;;;;;9.00;3.70;;;;;;;27.21;44.69;100414.60;105171;1277;95684;-81
2022/07/22 07:25:11;;;;;;;8.30;4.00;;;;;;;27.26;45.30;100414.65;105835;1276;95111;-81
2022/07/22 07:27:52;;;;;;;10.90;4.40;;;;;;;27.36;44.64;100415.11;105650;1276;136848;-82
2022/07/22 07:30:35;;;;;;;11.00;4.20;;;;;;;27.45;44.55;100406.96;105463;1278;100015;-82
2022/07/22 07:33:03;;;;;;;11.30;4.50;;;;;;;27.52;44.18;100411.90;105376;1277;142372;-82
2022/07/22 07:35:32;;;;;;;11.00;4.80;;;;;;;27.61;44.58;100411.08;105910;1276;95255;-83
2022/07/22 07:38:01;;;;;;;11.00;4.90;;;;;;;27.68;43.88;100417.71;105596;1276;140928;-82
2022/07/22 07:40:29;;;;;;;10.60;5.20;;;;;;;27.75;44.00;100414.63;105611;1277;110222;-81
2022/07/22 07:42:57;;;;;;;11.90;5.30;;;;;;;27.80;44.07;100417.75;105658;1277;99922;-82
2022/07/22 07:45:31;;;;;;;12.50;5.90;;;;;;;27.85;43.69;100422.06;105507;1276;138942;-82
2022/07/22 07:48:00;;;;;;;10.60;5.70;;;;;;;27.87;43.74;100416.16;105444;1277;94969;-82
2022/07/22 07:50:28;;;;;;;10.80;6.40;;;;;;;27.93;44.17;100414.83;105530;1277;139437;-82
2022/07/22 07:52:57;;;;;;;12.20;6.20;;;;;;;28.00;44.34;100411.04;105643;1277;110600;-82
2022/07/22 07:55:25;;;;;;;11.20;6.40;;;;;;;28.04;43.69;100413.30;105595;1276;98644;-81
2022/07/22 07:57:54;;;;;;;11.00;6.80;;;;;;;28.11;43.54;100413.12;105539;1276;138042;-81
2022/07/22 08:00:30;;;;;;;12.30;6.30;;;;;;;28.34;43.55;100415.02;105688;1276;95269;-80
2022/07/22 08:03:05;;;;;;;11.90;7.30;;;;;;;28.56;43.32;100413.89;105796;1277;138636;-80
2022/07/22 08:05:36;;;;;;;13.90;7.70;;;;;;;28.56;43.89;100407.83;105501;1277;109204;-81
2022/07/22 08:08:07;;;;;;;11.30;7.30;;;;;;;28.68;43.88;100410.47;105533;1277;137812;-82
2022/07/22 08:10:44;;;;;;;14.80;7.90;;;;;;;28.80;43.80;100413.23;105661;1277;109395;-81
2022/07/22 08:13:44;;;;;;;11.60;8.30;;;;;;;28.84;43.62;100412.18;105374;1276;141140;-81
2022/07/22 08:16:13;;;;;;;15.10;8.70;;;;;;;28.84;43.84;100413.14;105623;1276;95304;-81
2022/07/22 08:18:42;;;;;;;12.70;8.70;;;;;;;28.82;43.74;100416.20;105791;1276;109869;-81
2022/07/22 08:21:12;;;;;;;14.90;9.20;;;;;;;28.79;43.88;100415.60;105666;1277;142596;-82
2022/07/22 08:23:49;;;;;;;14.80;8.80;;;;;;;28.80;43.94;100414.95;105807;1276;108877;-82
2022/07/22 08:26:18;;;;;;;14.00;8.40;;;;;;;28.83;43.82;100415.15;105819;1276;137621;-82
2022/07/22 08:28:47;;;;;;;14.90;8.60;;;;;;;28.90;43.89;100408.60;105911;1276;95179;-82
2022/07/22 08:31:15;;;;;;;13.10;8.90;;;;;;;28.98;43.58;100401.55;105923;1276;110159;-81
2022/07/22 08:33:43;;;;;;;13.70;8.90;;;;;;;29.03;43.82;100397.73;105563;1277;140275;-82
2022/07/22 08:36:11;;;;;;;14.00;8.50;;;;;;;29.11;44.06;100399.98;105340;1276;110038;-82
2022/07/22 08:38:39;;;;;;;14.90;9.20;;;;;;;29.23;43.80;100401.56;105417;1276;138653;-82
2022/07/22 08:41:07;;;;;;;14.50;9.40;;;;;;;29.34;42.87;100403.11;105631;1276;95738;-82
2022/07/22 08:43:41;;;;;;;14.90;9.40;;;;;;;29.42;43.32;100400.86;105245;1277;139356;-82
2022/07/22 08:46:10;;;;;;;13.40;8.80;;;;;;;29.52;43.58;100398.65;105140;1278;99129;-81
2022/07/22 08:49:12;;;;;;;15.50;8.90;;;;;;;29.64;42.92;100398.30;105683;1276;109038;-82
2022/07/22 08:51:56;;;;;;;12.40;8.20;;;;;;;29.72;42.75;100392.11;105912;1276;139328;-82
2022/07/22 08:54:27;;;;;;;16.00;9.30;;;;;;;29.84;42.35;100396.14;106232;1276;95538;-82
2022/07/22 08:56:56;;;;;;;14.40;9.40;;;;;;;29.99;42.75;100396.93;106478;1276;139576;-83
2022/07/22 08:59:25;;;;;;;15.80;9.30;;;;;;;30.19;42.44;100397.73;106166;1276;99573;-83
2022/07/22 09:02:08;;;;;;;15.70;9.70;;;;;;;30.31;41.72;100391.50;105893;1276;138572;-82
2022/07/22 09:04:54;;;;;;;16.70;9.30;;;;;;;30.35;41.30;100393.16;105361;1277;95140;-81
2022/07/22 09:07:24;;;;;;;16.00;9.40;;;;;;;30.45;42.01;100396.66;105502;1277;94865;-82
2022/07/22 09:09:54;;;;;;;15.10;9.30;;;;;;;30.62;41.39;100395.92;105295;1276;137434;-83
2022/07/22 09:13:04;;;;;;;13.80;9.50;;;;;;;30.64;40.66;100402.83;105496;1276;96921;-81
2022/07/22 09:15:53;;;;;;;15.60;9.30;;;;;;;30.81;41.72;100401.27;106037;1276;138441;-82
2022/07/22 09:18:53;;;;;;;15.30;10.00;;;;;;;31.06;41.09;100403.09;106033;1276;95871;-82
2022/07/22 09:21:46;;;;;;;13.20;9.90;;;;;;;31.29;40.85;100401.99;104904;1277;140016;-83
2022/07/22 09:24:32;;;;;;;15.10;10.00;;;;;;;31.43;40.19;100403.35;105453;1276;110336;-82
2022/07/22 09:27:29;;;;;;;14.30;9.50;;;;;;;31.61;40.23;100404.20;105553;1276;139102;-81
2022/07/22 09:30:23;;;;;;;14.70;9.80;;;;;;;31.79;39.67;100404.52;105358;1276;108156;-82
2022/07/22 09:33:03;;;;;;;13.20;9.40;;;;;;;32.04;39.26;100410.03;105127;1277;140347;-81
2022/07/22 09:35:43;;;;;;;13.90;8.90;;;;;;;32.39;39.07;100407.49;105606;1276;95545;-81
2022/07/22 09:38:28;;;;;;;14.20;9.10;;;;;;;33.21;37.89;100406.60;105641;1276;140818;-82
2022/07/22 09:40:59;;;;;;;13.20;8.90;;;;;;;34.23;36.31;100406.95;105473;1277;98471;-82
2022/07/22 09:43:34;;;;;;;13.00;9.00;;;;;;;35.11;34.34;100408.94;105735;1276;109436;-82
2022/07/22 09:46:04;;;;;;;11.80;8.80;;;;;;;35.69;32.95;100405.96;105350;1277;95730;-82
2022/07/22 09:49:09;;;;;;;13.30;8.70;;;;;;;35.85;32.56;100400.98;104774;1284;95228;-83
2022/07/22 09:51:47;;;;;;;13.00;8.70;;;;;;;35.89;33.02;100394.01;105275;1276;139091;-82
2022/07/22 09:54:30;;;;;;;11.70;9.30;;;;;;;35.98;32.13;100394.86;105141;1276;97060;-83
2022/07/22 09:56:59;;;;;;;11.80;8.50;;;;;;;36.18;32.48;100399.40;104908;1278;139094;-82
2022/07/22 09:59:27;;;;;;;13.30;8.40;;;;;;;36.92;32.04;100398.04;104942;1276;95832;-82
2022/07/22 10:02:11;;;;;;;12.00;8.20;;;;;;;37.87;30.41;100391.86;105327;1277;139275;-83
2022/07/22 10:04:42;;;;;;;13.50;8.20;;;;;;;38.70;28.98;100395.29;105577;1277;110256;-83
2022/07/22 10:07:11;;;;;;;11.80;8.00;;;;;;;39.47;28.12;100392.21;105841;1277;99749;-83
2022/07/22 10:09:46;;;;;;;12.30;8.10;;;;;;;40.02;26.94;100397.78;105556;1276;138510;-81
2022/07/22 10:12:15;;;;;;;13.40;8.10;;;;;;;40.31;26.29;100395.54;105546;1277;95273;-83
2022/07/22 10:14:45;;;;;;;10.20;7.80;;;;;;;40.74;26.65;100397.83;105620;1276;137654;-82
2022/07/22 10:17:14;;;;;;;11.60;7.60;;;;;;;41.25;25.90;100398.85;105669;1276;110586;-83
2022/07/22 10:19:50;;;;;;;9.30;7.00;;;;;;;41.73;24.90;100397.02;105722;1277;139607;-83
2022/07/22 10:22:43;;;;;;;9.50;7.20;;;;;;;42.16;24.82;100391.58;105883;1276;110055;-83
2022/07/22 10:25:18;;;;;;;11.60;7.70;;;;;;;42.60;23.68;100391.36;106234;1276;95109;-81
2022/07/22 10:27:55;;;;;;;11.40;7.70;;;;;;;42.77;23.58;100391.05;106030;1277;140929;-83
2022/07/22 10:30:40;;;;;;;11.20;7.10;;;;;;;43.26;23.57;100385.37;106233;1276;110072;-84
2022/07/22 10:33:19;;;;;;;10.20;7.60;;;;;;;43.74;22.22;100387.75;106186;1276;137824;-82
2022/07/22 10:35:55;;;;;;;11.50;7.10;;;;;;;43.82;22.28;100388.52;106191;1276;106353;-83
2022/07/22 10:38:24;;;;;;;9.10;6.70;;;;;;;44.05;22.17;100386.23;105341;1279;140128;-82
2022/07/22 10:40:57;;;;;;;11.10;7.10;;;;;;;44.37;21.65;100385.84;105764;1276;95165;-82
2022/07/22 10:43:27;;;;;;;10.50;6.70;;;;;;;44.54;20.82;100386.58;106031;1276;109180;-81
2022/07/22 10:46:06;;;;;;;10.80;7.00;;;;;;;44.63;21.10;100382.83;105739;1278;100384;-83
2022/07/22 10:48:37;;;;;;;9.50;7.50;;;;;;;45.00;20.58;100384.13;105681;1276;199016;-82
2022/07/22 10:51:15;;;;;;;11.50;7.00;;;;;;;45.07;20.67;100387.60;105816;1276;138584;-82
2022/07/22 10:54:05;;;;;;;11.20;7.30;;;;;;;45.09;20.08;100385.27;105638;1276;95488;-83
2022/07/22 10:56:35;;;;;;;9.10;6.90;;;;;;;45.20;20.17;100380.56;105494;1276;138777;-83
2022/07/22 10:59:12;;;;;;;11.60;7.10;;;;;;;45.28;19.68;100380.15;105891;1276;96596;-89
2022/07/22 11:01:43;;;;;;;10.00;7.10;;;;;;;45.03;20.23;100382.73;105892;1276;140423;-88
2022/07/22 11:04:17;;;;;;;9.00;6.10;;;;;;;45.15;19.69;100383.40;105884;1276;94376;-87
2022/07/22 11:06:50;;;;;;;9.20;6.70;;;;;;;44.98;19.69;100382.48;105790;1276;95132;-87
2022/07/22 11:09:20;;;;;;;10.70;7.40;;;;;;;43.98;20.62;100381.36;105616;1276;139891;-85
2022/07/22 11:11:52;;;;;;;11.90;7.60;;;;;;;43.07;21.37;100382.90;105375;1277;98360;-87
2022/07/22 11:14:31;;;;;;;10.00;7.20;;;;;;;42.14;22.04;100379.77;105633;1276;138182;-85
2022/07/22 11:17:05;;;;;;;11.10;7.90;;;;;;;41.47;23.11;100380.61;105341;1277;95154;-83
2022/07/22 11:19:33;;;;;;;9.20;7.20;;;;;;;40.71;23.18;100382.96;105291;1276;139993;-86
2022/07/22 11:22:19;;;;;;;11.50;7.80;;;;;;;40.12;24.00;100374.82;105379;1276;110234;-87
2022/07/22 11:24:51;;;;;;;11.20;8.10;;;;;;;39.53;24.92;100373.38;105388;1276;98445;-91
2022/07/22 11:27:22;;;;;;;11.00;8.00;;;;;;;39.01;25.67;100372.41;105425;1277;139441;-85
2022/07/22 11:29:53;;;;;;;13.40;8.40;;;;;;;38.55;26.61;100372.02;105514;1277;95881;-84